createdAt,value
2022-08-18T00:02:14.109Z,94809.30
2022-08-18T00:04:45.313Z,94812.23
2022-08-18T00:07:06.861Z,94811.55
2022-08-18T00:09:33.256Z,94809.30
2022-08-18T00:11:59.630Z,94809.65
2022-08-18T00:14:26.095Z,94807.19
2022-08-18T00:16:52.517Z,94808.48
2022-08-18T00:19:18.861Z,94809.78
2022-08-18T00:21:45.413Z,94807.06
2022-08-18T00:24:11.792Z,94813.19
2022-08-18T00:26:38.175Z,94808.16
2022-08-18T00:29:04.562Z,94814.48
2022-08-18T00:31:30.945Z,94805.89
2022-08-18T00:33:57.332Z,94811.06
2022-08-18T00:36:23.714Z,94808.48
2022-08-18T00:38:50.126Z,94808.01
2022-08-18T00:41:16.508Z,94802.02
2022-08-18T00:43:42.933Z,94803.94
2022-08-18T00:46:09.310Z,94809.30
2022-08-18T00:48:35.692Z,94809.78
2022-08-18T00:51:02.085Z,94809.78
2022-08-18T00:53:30.150Z,94814.95
2022-08-18T00:55:54.905Z,94818.02
2022-08-18T00:58:21.372Z,94821.10
2022-08-18T01:00:47.833Z,94822.71
2022-08-18T01:03:14.147Z,94821.10
2022-08-18T01:05:40.534Z,94826.59
2022-08-18T01:08:06.941Z,94817.06
2022-08-18T01:10:33.865Z,94824.16
2022-08-18T01:13:00.257Z,94827.22
2022-08-18T01:15:29.443Z,94825.45
2022-08-18T01:17:53.222Z,94820.28
2022-08-18T01:20:19.433Z,94818.98
2022-08-18T01:22:45.819Z,94819.81
2022-08-18T01:25:12.199Z,94824.64
2022-08-18T01:27:38.584Z,94828.86
2022-08-18T01:30:04.979Z,94824.64
2022-08-18T01:32:31.364Z,94828.52
2022-08-18T01:34:57.746Z,94819.46
2022-08-18T01:37:24.141Z,94820.41
2022-08-18T01:41:01.000Z,94813.94
2022-08-18T01:42:16.941Z,94817.82
2022-08-18T01:44:43.401Z,94817.34
2022-08-18T01:47:09.800Z,94814.41
2022-08-18T01:49:36.280Z,94807.62
2022-08-18T01:52:02.668Z,94806.34
2022-08-18T01:54:29.134Z,94804.06
2022-08-18T01:56:55.523Z,94807.12
2022-08-18T01:59:21.901Z,94803.12
2022-08-18T02:01:53.266Z,94804.88
2022-08-18T02:04:33.728Z,94802.58
2022-08-18T02:06:42.397Z,94803.24
2022-08-18T02:09:07.562Z,94805.04
2022-08-18T02:11:33.940Z,94801.35
2022-08-18T02:14:00.325Z,94798.58
2022-08-18T02:16:26.717Z,94805.36
2022-08-18T02:18:53.103Z,94810.87
2022-08-18T02:21:19.527Z,94814.64
2022-08-18T02:23:49.204Z,94817.22
2022-08-18T02:26:12.281Z,94818.52
2022-08-18T02:28:38.662Z,94814.95
2022-08-18T02:31:05.079Z,94817.00
2022-08-18T02:33:31.454Z,94813.28
2022-08-18T02:35:59.091Z,94813.94
2022-08-18T02:38:24.273Z,94813.47
2022-08-18T02:40:50.660Z,94812.64
2022-08-18T02:43:17.052Z,94811.00
2022-08-18T02:45:43.444Z,94807.81
2022-08-18T02:48:09.826Z,94806.65
2022-08-18T02:50:36.203Z,94802.92
2022-08-18T02:53:02.591Z,94811.64
2022-08-18T02:55:28.966Z,94811.28
2022-08-18T02:57:55.379Z,94811.64
2022-08-18T03:00:21.762Z,94810.97
2022-08-18T03:02:48.150Z,94812.73
2022-08-18T03:05:14.971Z,94820.03
2022-08-18T03:07:40.975Z,94825.48
2022-08-18T03:10:33.200Z,94819.61
2022-08-18T03:12:33.772Z,94814.59
2022-08-18T03:15:00.158Z,94816.98
2022-08-18T03:17:26.560Z,94817.11
2022-08-18T03:19:52.971Z,94817.11
2022-08-18T03:22:28.601Z,94831.22
2022-08-18T03:24:45.805Z,94826.83
2022-08-18T03:27:12.218Z,94825.50
2022-08-18T03:29:40.262Z,94830.99
2022-08-18T03:32:05.004Z,94830.17
2022-08-18T03:34:31.377Z,94832.09
2022-08-18T03:36:57.767Z,94832.38
2022-08-18T03:39:24.145Z,94835.03
2022-08-18T03:41:58.536Z,94834.67
2022-08-18T03:44:16.919Z,94833.38
2022-08-18T03:46:43.305Z,94838.37
2022-08-18T03:49:09.685Z,94833.03
2022-08-18T03:51:36.074Z,94838.71
2022-08-18T03:54:02.451Z,94836.25
2022-08-18T03:56:28.843Z,94843.06
2022-08-18T03:58:55.217Z,94839.31
2022-08-18T04:01:23.746Z,94840.01
2022-08-18T04:03:47.975Z,94849.37
2022-08-18T04:06:14.388Z,94848.08
2022-08-18T04:08:40.778Z,94848.83
2022-08-18T04:11:07.160Z,94845.23
2022-08-18T04:13:33.541Z,94851.67
2022-08-18T04:15:59.929Z,94853.59
2022-08-18T04:18:26.323Z,94856.19
2022-08-18T04:20:56.267Z,94854.47
2022-08-18T04:23:19.088Z,94850.46
2022-08-18T04:25:45.474Z,94858.21
2022-08-18T04:28:11.852Z,94850.73
2022-08-18T04:30:38.231Z,94853.04
2022-08-18T04:33:04.607Z,94859.97
2022-08-18T04:35:30.995Z,94860.80
2022-08-18T04:37:57.382Z,94861.14
2022-08-18T04:40:25.299Z,94866.71
2022-08-18T04:42:50.274Z,94863.66
2022-08-18T04:45:16.659Z,94867.73
2022-08-18T04:47:43.038Z,94869.22
2022-08-18T04:50:09.424Z,94867.93
2022-08-18T04:52:40.876Z,94875.30
2022-08-18T04:55:02.246Z,94869.03
2022-08-18T04:57:28.627Z,94874.20
2022-08-18T04:59:55.007Z,94877.45
2022-08-18T05:02:21.401Z,94874.08
2022-08-18T05:04:47.788Z,94875.38
2022-08-18T05:07:14.171Z,94880.27
2022-08-18T05:09:41.068Z,94878.36
2022-08-18T05:12:06.939Z,94879.64
2022-08-18T05:14:33.316Z,94888.70
2022-08-18T05:16:59.700Z,94887.95
2022-08-18T05:19:26.795Z,94885.37
2022-08-18T05:21:53.411Z,94891.01
2022-08-18T05:24:19.801Z,94895.23
2022-08-18T05:26:46.176Z,94897.40
2022-08-18T05:29:18.047Z,94895.78
2022-08-18T05:31:38.962Z,94894.97
2022-08-18T05:34:05.353Z,94897.40
2022-08-18T05:36:31.730Z,94896.61
2022-08-18T05:38:58.117Z,94899.19
2022-08-18T05:41:24.500Z,94896.33
2022-08-18T05:43:51.218Z,94898.09
2022-08-18T05:46:17.360Z,94895.98
2022-08-18T05:48:43.917Z,94903.27
2022-08-18T05:51:10.122Z,94901.86
2022-08-18T05:53:36.511Z,94903.74
2022-08-18T05:56:05.069Z,94896.92
2022-08-18T05:58:33.835Z,94901.50
2022-08-18T06:00:59.624Z,94897.03
2022-08-18T06:03:24.332Z,94897.62
2022-08-18T06:05:50.668Z,94898.92
2022-08-18T06:08:17.057Z,94901.50
2022-08-18T06:10:43.450Z,94900.56
2022-08-18T06:13:09.833Z,94896.09
2022-08-18T06:15:36.201Z,94899.00
2022-08-18T06:18:02.587Z,94898.33
2022-08-18T06:20:28.980Z,94891.05
2022-08-18T06:22:55.534Z,94892.92
2022-08-18T06:25:21.765Z,94897.51
2022-08-18T06:27:48.213Z,94894.69
2022-08-18T06:30:14.549Z,94895.64
2022-08-18T06:32:41.024Z,94893.87
2022-08-18T06:35:07.403Z,94889.91
2022-08-18T06:37:33.801Z,94893.16
2022-08-18T06:40:00.268Z,94888.92
2022-08-18T06:42:26.575Z,94890.39
2022-08-18T06:44:53.005Z,94893.63
2022-08-18T06:47:19.390Z,94895.74
2022-08-18T06:49:45.804Z,94895.74
2022-08-18T06:52:12.190Z,94887.52
2022-08-18T06:54:38.579Z,94880.27
2022-08-18T06:57:04.964Z,94876.23
2022-08-18T06:59:31.406Z,94873.96
2022-08-18T07:01:57.783Z,94881.80
2022-08-18T07:04:24.165Z,94876.70
2022-08-18T07:06:50.560Z,94874.16
2022-08-18T07:09:17.105Z,94867.77
2022-08-18T07:11:43.493Z,94873.06
2022-08-18T07:14:16.661Z,94859.94
2022-08-18T07:16:57.168Z,94862.59
2022-08-18T07:19:02.658Z,94859.53
2022-08-18T07:21:29.042Z,94861.18
2022-08-18T07:24:21.067Z,94859.62
2022-08-18T07:26:21.847Z,94856.05
2022-08-18T07:28:48.334Z,94855.47
2022-08-18T07:31:17.311Z,94850.41
2022-08-18T07:33:41.105Z,94848.84
2022-08-18T07:36:07.496Z,94845.94
2022-08-18T07:38:49.433Z,94851.59
2022-08-18T07:41:00.407Z,94847.44
2022-08-18T07:43:26.786Z,94845.32
2022-08-18T07:45:53.242Z,94849.56
2022-08-18T07:48:38.738Z,94849.55
2022-08-18T07:50:58.247Z,94847.56
2022-08-18T07:53:12.389Z,94852.45
2022-08-18T07:55:38.782Z,94844.38
2022-08-18T07:58:05.179Z,94842.11
2022-08-18T08:02:58.124Z,94853.00
2022-08-18T08:05:24.516Z,94851.04
2022-08-18T08:07:51.038Z,94847.00
2022-08-18T08:10:17.319Z,94845.94
2022-08-18T08:12:43.713Z,94845.24
2022-08-18T08:15:10.192Z,94843.35
2022-08-18T08:17:36.634Z,94843.20
2022-08-18T08:20:03.088Z,94841.98
2022-08-18T08:22:29.450Z,94845.44
2022-08-18T08:24:55.841Z,94843.20
2022-08-18T08:27:22.274Z,94838.66
2022-08-18T08:29:48.808Z,94840.97
2022-08-18T08:32:15.182Z,94840.67
2022-08-18T08:34:41.573Z,94811.97
2022-08-18T08:37:08.090Z,94838.91
2022-08-18T08:39:34.712Z,94840.47
2022-08-18T08:42:31.713Z,94837.73
2022-08-18T08:44:27.488Z,94841.02
2022-08-18T08:46:53.892Z,94836.17
2022-08-18T08:49:20.354Z,94837.00
2022-08-18T08:51:46.750Z,94830.61
2022-08-18T08:54:13.168Z,94834.88
2022-08-18T08:56:40.832Z,94836.17
2022-08-18T08:59:06.053Z,94836.52
2022-08-18T09:01:32.522Z,94835.16
2022-08-18T09:03:58.824Z,94842.05
2022-08-18T09:06:25.206Z,94839.93
2022-08-18T09:08:51.616Z,94837.19
2022-08-18T09:11:18.020Z,94838.56
2022-08-18T09:13:44.407Z,94827.20
2022-08-18T09:16:12.349Z,94832.72
2022-08-18T09:18:37.186Z,94821.95
2022-08-18T09:21:03.590Z,94820.11
2022-08-18T09:23:29.975Z,94816.71
2022-08-18T09:25:56.366Z,94812.64
2022-08-18T09:28:22.777Z,94813.45
2022-08-18T09:30:51.448Z,94814.41
2022-08-18T09:33:18.845Z,94809.30
2022-08-18T09:35:41.995Z,94809.66
2022-08-18T09:38:08.380Z,94803.39
2022-08-18T09:43:02.058Z,94798.38
2022-08-18T09:45:31.097Z,94801.27
2022-08-18T09:47:54.139Z,94797.27
2022-08-18T09:52:47.009Z,94800.95
2022-08-18T09:55:13.414Z,94797.00
2022-08-18T09:57:42.283Z,94785.17
2022-08-18T10:00:07.332Z,94790.26
2022-08-18T10:02:32.715Z,94783.72
2022-08-18T10:04:59.110Z,94779.16
2022-08-18T10:07:25.495Z,94783.46
2022-08-18T10:09:51.876Z,94783.94
2022-08-18T10:12:18.291Z,94770.41
2022-08-18T10:14:45.137Z,94774.88
2022-08-18T10:17:23.843Z,94772.70
2022-08-18T10:19:39.432Z,94768.83
2022-08-18T10:22:03.933Z,94766.81
2022-08-18T10:24:36.378Z,94762.02
2022-08-18T10:26:56.708Z,94761.41
2022-08-18T10:29:23.110Z,94772.16
2022-08-18T10:31:49.499Z,94766.80
2022-08-18T10:34:18.476Z,94766.92
2022-08-18T10:36:42.333Z,94760.92
2022-08-18T10:39:09.010Z,94758.15
2022-08-18T10:41:35.507Z,94751.00
2022-08-18T10:44:07.324Z,94759.04
2022-08-18T10:46:31.871Z,94750.53
2022-08-18T10:48:54.725Z,94751.60
2022-08-18T10:53:47.817Z,94742.62
2022-08-18T10:56:13.958Z,94745.30
2022-08-18T10:58:40.354Z,94743.53
2022-08-18T11:01:07.939Z,94738.67
2022-08-18T11:05:59.524Z,94737.55
2022-08-18T11:08:25.912Z,94730.04
2022-08-18T11:11:33.053Z,94736.31
2022-08-18T11:13:18.810Z,94723.86
2022-08-18T11:15:45.216Z,94724.05
2022-08-18T11:18:11.601Z,94720.30
2022-08-18T11:20:38.021Z,94724.67
2022-08-18T11:23:04.430Z,94720.11
2022-08-18T11:25:30.815Z,94722.69
2022-08-18T11:27:57.234Z,94720.27
2022-08-18T11:30:31.060Z,94721.88
2022-08-18T11:32:51.988Z,94726.03
2022-08-18T11:35:16.596Z,94723.39
2022-08-18T11:37:51.670Z,94717.80
2022-08-18T11:40:09.791Z,94718.87
2022-08-18T11:42:35.904Z,94721.27
2022-08-18T11:45:02.305Z,94713.36
2022-08-18T11:47:30.015Z,94712.89
2022-08-18T11:49:55.134Z,94710.78
2022-08-18T11:52:26.224Z,94705.89
2022-08-18T11:54:50.550Z,94707.18
2022-08-18T11:57:14.302Z,94704.41
2022-08-18T11:59:54.742Z,94701.06
2022-08-18T12:02:07.105Z,94695.70
2022-08-18T12:04:33.488Z,94698.20
2022-08-18T12:06:59.896Z,94694.19
2022-08-18T12:11:52.796Z,94698.88
2022-08-18T12:14:30.456Z,94690.38
2022-08-18T12:16:46.378Z,94681.95
2022-08-18T12:19:12.204Z,94682.55
2022-08-18T12:21:38.420Z,94678.90
2022-08-18T12:24:04.831Z,94681.48
2022-08-18T12:26:38.566Z,94674.33
2022-08-18T12:29:01.215Z,94677.32
2022-08-18T12:31:29.136Z,94670.64
2022-08-18T12:34:00.188Z,94674.58
2022-08-18T12:36:16.769Z,94673.73
2022-08-18T12:38:43.187Z,94673.57
2022-08-18T12:41:11.984Z,94670.39
2022-08-18T12:43:38.363Z,94668.34
2022-08-18T12:46:04.775Z,94670.33
2022-08-18T12:48:31.345Z,94673.63
2022-08-18T12:50:59.892Z,94672.97
2022-08-18T12:53:29.920Z,94671.58
2022-08-18T12:55:50.510Z,94676.56
2022-08-18T12:58:16.947Z,94670.83
2022-08-18T13:00:43.440Z,94676.56
2022-08-18T13:03:09.815Z,94668.40
2022-08-18T13:05:36.211Z,94670.67
2022-08-18T13:08:04.506Z,94666.70
2022-08-18T13:10:43.079Z,94663.05
2022-08-18T13:12:55.395Z,94657.71
2022-08-18T13:15:21.778Z,94650.49
2022-08-18T13:17:48.229Z,94658.25
2022-08-18T13:20:14.579Z,94657.11
2022-08-18T13:22:40.998Z,94651.88
2022-08-18T13:25:07.551Z,94640.44
2022-08-18T13:27:35.963Z,94644.03
2022-08-18T13:30:00.230Z,94642.95
2022-08-18T13:32:26.560Z,94644.59
2022-08-18T13:34:52.969Z,94639.95
2022-08-18T13:37:20.478Z,94638.67
2022-08-18T13:39:45.848Z,94641.95
2022-08-18T13:42:26.809Z,94638.85
2022-08-18T13:44:38.599Z,94638.06
2022-08-18T13:47:04.987Z,94634.69
2022-08-18T13:49:31.399Z,94629.39
2022-08-18T13:51:57.790Z,94630.02
2022-08-18T13:54:31.334Z,94629.05
2022-08-18T13:56:51.762Z,94636.27
2022-08-18T13:59:16.969Z,94638.62
2022-08-18T14:01:51.302Z,94630.39
2022-08-18T14:04:12.357Z,94627.56
2022-08-18T14:06:36.241Z,94621.16
2022-08-18T14:09:02.725Z,94621.98
2022-08-18T14:11:32.834Z,94618.23
2022-08-18T14:13:55.538Z,94617.22
2022-08-18T14:16:22.017Z,94618.33
2022-08-18T14:18:48.403Z,94622.33
2022-08-18T14:21:14.807Z,94619.75
2022-08-18T14:23:51.500Z,94622.75
2022-08-18T14:26:07.633Z,94617.70
2022-08-18T14:28:34.005Z,94620.45
2022-08-18T14:31:00.388Z,94621.92
2022-08-18T14:33:34.186Z,94617.98
2022-08-18T14:36:05.847Z,94614.30
2022-08-18T14:38:19.641Z,94613.77
2022-08-18T14:40:46.017Z,94610.92
2022-08-18T14:43:14.290Z,94614.86
2022-08-18T14:45:38.836Z,94610.70
2022-08-18T14:48:06.679Z,94608.19
2022-08-18T14:50:31.589Z,94607.36
2022-08-18T14:52:58.029Z,94609.12
2022-08-18T14:55:24.421Z,94613.35
2022-08-18T14:57:50.863Z,94606.36
2022-08-18T15:00:17.189Z,94610.04
2022-08-18T15:02:43.577Z,94619.09
2022-08-18T15:05:19.458Z,94611.94
2022-08-18T15:07:36.482Z,94617.85
2022-08-18T15:10:15.338Z,94611.20
2022-08-18T15:12:29.310Z,94606.53
2022-08-18T15:14:55.830Z,94603.00
2022-08-18T15:17:22.329Z,94614.28
2022-08-18T15:20:00.132Z,94608.94
2022-08-18T15:22:15.901Z,94620.73
2022-08-18T15:24:41.487Z,94624.12
2022-08-18T15:27:10.245Z,94619.63
2022-08-18T15:29:34.258Z,94618.45
2022-08-18T15:32:05.617Z,94624.52
2022-08-18T15:34:27.571Z,94624.16
2022-08-18T15:36:53.444Z,94621.87
2022-08-18T15:39:19.857Z,94617.17
2022-08-18T15:41:46.304Z,94620.23
2022-08-18T15:44:12.680Z,94617.33
2022-08-18T15:46:39.077Z,94616.33
2022-08-18T15:49:05.465Z,94617.61
2022-08-18T15:51:41.228Z,94619.22
2022-08-18T15:53:58.265Z,94615.16
2022-08-18T15:56:26.023Z,94615.34
2022-08-18T15:58:51.034Z,94612.16
2022-08-18T16:01:29.889Z,94611.23
2022-08-18T16:03:43.835Z,94614.80
2022-08-18T16:06:10.219Z,94608.47
2022-08-18T16:08:36.681Z,94615.59
2022-08-18T16:11:03.049Z,94616.16
2022-08-18T16:13:29.429Z,94620.92
2022-08-18T16:15:55.822Z,94619.37
2022-08-18T16:18:22.207Z,94619.85
2022-08-18T16:20:48.626Z,94620.80
2022-08-18T16:23:14.982Z,94625.59
2022-08-18T16:25:41.363Z,94626.41
2022-08-18T16:28:07.749Z,94626.06
2022-08-18T16:30:34.128Z,94621.66
2022-08-18T16:33:00.514Z,94621.84
2022-08-18T16:35:26.893Z,94618.72
2022-08-18T16:37:53.533Z,94624.93
2022-08-18T16:40:19.684Z,94626.53
2022-08-18T16:42:46.070Z,94623.83
2022-08-18T16:45:13.398Z,94630.09
2022-08-18T16:47:38.836Z,94625.94
2022-08-18T16:50:05.219Z,94631.95
2022-08-18T16:52:31.621Z,94639.59
2022-08-18T16:54:58.286Z,94639.14
2022-08-18T16:57:24.405Z,94638.86
2022-08-18T16:59:50.800Z,94637.56
2022-08-18T17:02:17.184Z,94638.33
2022-08-18T17:04:43.562Z,94643.18
2022-08-18T17:07:10.020Z,94640.25
2022-08-18T17:09:36.402Z,94648.82
2022-08-18T17:12:02.782Z,94653.36
2022-08-18T17:14:29.171Z,94652.89
2022-08-18T17:16:55.551Z,94652.29
2022-08-18T17:19:21.938Z,94648.13
2022-08-18T17:21:48.316Z,94655.53
2022-08-18T17:24:14.726Z,94658.47
2022-08-18T17:26:41.261Z,94656.58
2022-08-18T17:29:07.495Z,94665.28
2022-08-18T17:31:33.884Z,94663.17
2022-08-18T17:34:00.280Z,94661.66
2022-08-18T17:36:26.659Z,94671.46
2022-08-18T17:38:53.039Z,94671.27
2022-08-18T17:41:19.426Z,94676.09
2022-08-18T17:46:12.187Z,94684.00
2022-08-18T17:48:38.648Z,94685.14
2022-08-18T17:51:05.049Z,94684.39
2022-08-18T17:53:31.422Z,94696.23
2022-08-18T17:55:57.800Z,94699.02
2022-08-18T17:58:24.190Z,94712.06
2022-08-18T18:00:50.575Z,94711.59
2022-08-18T18:03:16.956Z,94720.87
2022-08-18T18:05:43.328Z,94722.03
2022-08-18T18:08:09.718Z,94726.55
2022-08-18T18:10:43.073Z,94730.62
2022-08-18T18:13:04.778Z,94738.44
2022-08-18T18:15:31.183Z,94736.48
2022-08-18T18:17:57.563Z,94742.32
2022-08-18T18:20:23.957Z,94747.69
2022-08-18T18:22:50.343Z,94748.85
2022-08-18T18:25:16.716Z,94751.25
2022-08-18T18:27:43.222Z,94754.97
2022-08-18T18:30:09.640Z,94757.55
2022-08-18T18:32:36.018Z,94756.95
2022-08-18T18:35:02.406Z,94755.66
2022-08-18T18:37:28.785Z,94760.20
2022-08-18T18:39:55.223Z,94760.55
2022-08-18T18:42:21.576Z,94761.22
2022-08-18T18:44:47.979Z,94762.98
2022-08-18T18:47:14.383Z,94759.64
2022-08-18T18:49:40.768Z,94761.75
2022-08-18T18:52:07.153Z,94763.87
2022-08-18T18:54:33.544Z,94764.22
2022-08-18T18:57:00.014Z,94765.50
2022-08-18T18:59:26.398Z,94766.30
2022-08-18T19:01:52.785Z,94767.47
2022-08-18T19:04:19.166Z,94771.81
2022-08-18T19:06:45.546Z,94771.19
2022-08-18T19:09:11.943Z,94774.94
2022-08-18T19:11:38.330Z,94768.82
2022-08-18T19:14:07.603Z,94772.70
2022-08-18T19:16:31.099Z,94770.43
2022-08-18T19:19:35.477Z,94764.12
2022-08-18T19:22:03.153Z,94766.42
2022-08-18T19:23:50.309Z,94765.95
2022-08-18T19:26:16.703Z,94762.54
2022-08-18T19:29:12.733Z,94764.18
2022-08-18T19:31:09.487Z,94759.80
2022-08-18T19:33:35.877Z,94758.84
2022-08-18T19:36:02.760Z,94761.91
2022-08-18T19:38:29.933Z,94762.38
2022-08-18T19:40:55.100Z,94761.09
2022-08-18T19:43:21.488Z,94761.78
2022-08-18T19:45:47.870Z,94757.91
2022-08-18T19:48:18.145Z,94761.15
2022-08-18T19:50:41.000Z,94758.56
2022-08-18T19:53:07.386Z,94759.38
2022-08-18T19:55:33.772Z,94758.09
2022-08-18T19:58:00.154Z,94756.80
2022-08-18T20:00:26.538Z,94758.44
2022-08-18T20:02:53.086Z,94758.09
2022-08-18T20:05:19.303Z,94758.44
2022-08-18T20:07:46.813Z,94750.80
2022-08-18T20:10:12.075Z,94748.09
2022-08-18T20:12:38.454Z,94747.61
2022-08-18T20:15:04.835Z,94745.81
2022-08-18T20:17:31.209Z,94739.69
2022-08-18T20:19:57.760Z,94745.02
2022-08-18T20:22:24.711Z,94747.45
2022-08-18T20:24:50.538Z,94742.75
2022-08-18T20:27:16.922Z,94745.69
2022-08-18T20:29:43.356Z,94748.11
2022-08-18T20:32:09.762Z,94746.82
2022-08-18T20:34:37.576Z,94748.45
2022-08-18T20:37:02.551Z,94748.80
2022-08-18T20:39:29.027Z,94748.80
2022-08-18T20:41:55.434Z,94746.22
2022-08-18T20:44:28.754Z,94748.33
2022-08-18T20:46:48.242Z,94753.51
2022-08-18T20:49:14.627Z,94754.64
2022-08-18T20:51:41.017Z,94749.12
2022-08-18T20:54:13.454Z,94748.64
2022-08-18T20:56:43.153Z,94754.83
2022-08-18T20:59:00.171Z,94754.64
2022-08-18T21:01:26.596Z,94751.92
2022-08-18T21:03:52.953Z,94755.59
2022-08-18T21:06:19.321Z,94756.28
2022-08-18T21:08:45.798Z,94755.80
2022-08-18T21:11:12.176Z,94754.36
2022-08-18T21:13:38.564Z,94758.88
2022-08-18T21:16:04.948Z,94763.89
2022-08-18T21:18:31.327Z,94761.30
2022-08-18T21:20:57.738Z,94765.69
2022-08-18T21:23:24.128Z,94767.30
2022-08-18T21:25:50.510Z,94768.59
2022-08-18T21:28:18.610Z,94769.88
2022-08-18T21:30:43.285Z,94764.70
2022-08-18T21:33:09.667Z,94770.05
2022-08-18T21:35:36.052Z,94760.51
2022-08-18T21:38:02.439Z,94760.00
2022-08-18T21:40:29.914Z,94762.94
2022-08-18T21:42:55.333Z,94764.70
2022-08-18T21:45:21.721Z,94767.45
2022-08-18T21:47:48.100Z,94768.59
2022-08-18T21:50:14.487Z,94765.53
2022-08-18T21:52:40.873Z,94767.30
2022-08-18T21:55:07.299Z,94764.23
2022-08-18T21:57:33.728Z,94763.89
2022-08-18T22:00:00.125Z,94761.17
2022-08-18T22:02:26.527Z,94767.30
2022-08-18T22:04:52.924Z,94756.81
2022-08-18T22:07:34.704Z,94758.92
2022-08-18T22:09:45.698Z,94764.10
2022-08-18T22:12:12.172Z,94753.41
2022-08-18T22:14:53.667Z,94760.22
2022-08-18T22:17:06.368Z,94764.23
2022-08-18T22:19:31.423Z,94755.52
2022-08-18T22:21:57.812Z,94756.34
2022-08-18T22:24:24.299Z,94761.83
2022-08-18T22:26:50.679Z,94759.14
2022-08-18T22:29:17.061Z,94757.95
2022-08-18T22:31:43.491Z,94755.83
2022-08-18T22:34:09.876Z,94757.13
2022-08-18T22:36:36.266Z,94748.89
2022-08-18T22:39:02.651Z,94751.48
2022-08-18T22:41:29.039Z,94745.98
2022-08-18T22:43:55.609Z,94747.59
2022-08-18T22:46:24.395Z,94742.11
2022-08-18T22:48:48.213Z,94746.30
2022-08-18T22:51:14.613Z,94744.06
2022-08-18T22:53:41.001Z,94742.11
2022-08-18T22:56:07.389Z,94738.70
2022-08-18T22:58:33.769Z,94737.41
2022-08-18T23:01:01.078Z,94730.11
2022-08-18T23:03:26.586Z,94735.77
2022-08-18T23:05:52.918Z,94728.95
2022-08-18T23:08:19.313Z,94732.36
2022-08-18T23:10:45.713Z,94731.41
2022-08-18T23:13:12.093Z,94731.22
2022-08-18T23:15:38.478Z,94734.94
2022-08-18T23:18:04.909Z,94732.83
2022-08-18T23:20:31.302Z,94738.35
2022-08-18T23:22:57.676Z,94736.71
2022-08-18T23:25:24.086Z,94735.92
2022-08-18T23:27:53.401Z,94732.99
2022-08-18T23:30:19.809Z,94733.81
2022-08-18T23:32:46.285Z,94729.92
2022-08-18T23:35:12.570Z,94730.53
2022-08-18T23:37:38.949Z,94726.65
2022-08-18T23:40:05.422Z,94728.10
2022-08-18T23:42:31.749Z,94724.53
2022-08-18T23:44:58.128Z,94721.47
2022-08-18T23:47:24.530Z,94721.63
2022-08-18T23:49:50.913Z,94715.64
2022-08-18T23:52:17.310Z,94713.05
2022-08-18T23:54:43.689Z,94716.93
2022-08-18T23:57:10.086Z,94713.69
2022-08-18T23:59:36.465Z,94708.00
